Time,TemperatureF,DewpointF,PressureIn,WindDirection,WindDirectionDegrees,WindSpeedMPH,WindSpeedGustMPH,Humidity,HourlyPrecipIn,Conditions,Clouds,dailyrainin,SolarRadiationWatts/m^2,SoftwareType,DateUTC
2013-04-02 00:09:00,24.3,18.7,30.16,NW,306,2.0,3.0,79,0.00,CLR,CLR,0.00,0.0,WeatherDisplay:10.37,2013-04-02 05:09:00,
2013-04-02 00:14:00,24.2,18.6,30.17,NW,306,2.0,3.0,79,0.00,CLR,CLR,0.00,0.0,WeatherDisplay:10.37,2013-04-02 05:14:00,
2013-04-02 00:19:00,24.0,18.4,30.16,NW,306,1.0,3.0,79,0.00,CLR,CLR,0.00,0.0,WeatherDisplay:10.37,2013-04-02 05:19:00,
2013-04-02 00:24:00,24.0,18.8,30.17,NW,309,2.0,3.0,80,0.00,CLR,CLR,0.00,0.0,WeatherDisplay:10.37,2013-04-02 05:24:00,
2013-04-02 00:29:00,24.6,19.6,30.17,NW,317,2.0,4.0,81,0.00,CLR,CLR,0.00,0.0,WeatherDisplay:10.37,2013-04-02 05:29:00,
2013-04-02 00:34:00,25.2,19.9,30.17,NW,315,2.0,3.0,80,0.00,CLR,CLR,0.00,0.0,WeatherDisplay:10.37,2013-04-02 05:34:00,
2013-04-02 00:39:00,25.4,19.8,30.17,NW,310,2.0,3.0,79,0.00,CLR,CLR,0.00,0.0,WeatherDisplay:10.37,2013-04-02 05:39:00,
2013-04-02 00:44:00,25.3,19.4,30.17,NW,310,1.0,3.0,78,0.00,CLR,CLR,0.00,0.0,WeatherDisplay:10.37,2013-04-02 05:44:00,
2013-04-02 00:49:00,25.2,19.3,30.17,NW,310,2.0,4.0,78,0.00,CLR,CLR,0.00,0.0,WeatherDisplay:10.37,2013-04-02 05:49:00,
2013-04-02 00:54:00,25.1,19.3,30.17,NW,310,2.0,4.0,78,0.00,CLR,CLR,0.00,0.0,WeatherDisplay:10.37,2013-04-02 05:54:00,
2013-04-02 00:59:00,24.9,19.3,30.17,NW,310,2.0,4.0,79,0.00,CLR,CLR,0.00,0.0,WeatherDisplay:10.37,2013-04-02 05:59:00,
2013-04-02 01:04:00,24.9,19.3,30.17,NW,310,2.0,3.0,79,0.00,CLR,CLR,0.00,0.0,WeatherDisplay:10.37,2013-04-02 06:04:00,
2013-04-02 01:09:00,24.8,19.2,30.17,NW,310,1.0,4.0,79,0.00,CLR,CLR,0.00,0.0,WeatherDisplay:10.37,2013-04-02 06:09:00,
2013-04-02 01:14:00,24.6,19.4,30.18,NW,310,1.0,2.0,80,0.00,CLR,CLR,0.00,0.0,WeatherDisplay:10.37,2013-04-02 06:14:00,
2013-04-02 01:19:00,24.3,18.8,30.18,NW,310,1.0,2.0,79,0.00,CLR,CLR,0.00,0.0,WeatherDisplay:10.37,2013-04-02 06:19:00,
2013-04-02 01:24:00,24.0,18.4,30.18,NW,310,2.0,3.0,79,0.00,CLR,CLR,0.00,0.0,WeatherDisplay:10.37,2013-04-02 06:24:00,
2013-04-02 01:29:00,23.4,18.2,30.18,NW,310,1.0,3.0,80,0.00,CLR,CLR,0.00,0.0,WeatherDisplay:10.37,2013-04-02 06:29:00,
2013-04-02 01:34:00,23.1,18.1,30.18,NW,310,0.0,1.0,81,0.00,CLR,CLR,0.00,0.0,WeatherDisplay:10.37,2013-04-02 06:34:00,
2013-04-02 01:39:00,22.8,17.9,30.19,NW,310,0.0,0.0,81,0.00,CLR,CLR,0.00,0.0,WeatherDisplay:10.37,2013-04-02 06:39:00,
2013-04-02 01:44:00,22.6,17.6,30.18,NW,310,0.0,0.0,81,0.00,CLR,CLR,0.00,0.0,WeatherDisplay:10.37,2013-04-02 06:44:00,
2013-04-02 01:49:00,22.4,18.0,30.18,NW,310,0.0,0.0,83,0.00,CLR,CLR,0.00,0.0,WeatherDisplay:10.37,2013-04-02 06:49:00,
2013-04-02 01:54:00,22.3,17.9,30.18,NW,310,0.0,0.0,83,0.00,CLR,CLR,0.00,0.0,WeatherDisplay:10.37,2013-04-02 06:54:00,
2013-04-02 01:59:00,22.1,17.7,30.19,NW,310,0.0,0.0,83,0.00,CLR,CLR,0.00,0.0,WeatherDisplay:10.37,2013-04-02 06:59:00,
2013-04-02 02:04:00,22.0,17.6,30.18,NW,310,0.0,0.0,83,0.00,CLR,CLR,0.00,0.0,WeatherDisplay:10.37,2013-04-02 07:04:00,
2013-04-02 02:09:00,21.9,17.8,30.18,NW,310,0.0,1.0,84,0.00,CLR,CLR,0.00,0.0,WeatherDisplay:10.37,2013-04-02 07:09:00,
2013-04-02 02:14:00,21.8,17.7,30.18,NW,310,0.0,1.0,84,0.00,CLR,CLR,0.00,0.0,WeatherDisplay:10.37,2013-04-02 07:14:00,
2013-04-02 02:19:00,21.7,17.6,30.18,NW,310,0.0,0.0,84,0.00,CLR,CLR,0.00,0.0,WeatherDisplay:10.37,2013-04-02 07:19:00,
2013-04-02 02:24:00,21.6,17.5,30.18,NW,310,0.0,0.0,84,0.00,CLR,CLR,0.00,0.0,WeatherDisplay:10.37,2013-04-02 07:24:00,
2013-04-02 02:29:00,21.5,17.4,30.18,NW,310,0.0,0.0,84,0.00,CLR,CLR,0.00,0.0,WeatherDisplay:10.37,2013-04-02 07:29:00,
2013-04-02 02:34:00,21.0,16.9,30.18,NW,310,0.0,1.0,84,0.00,CLR,CLR,0.00,0.0,WeatherDisplay:10.37,2013-04-02 07:34:00,
2013-04-02 02:39:00,20.6,16.6,30.18,NW,310,0.0,0.0,84,0.00,CLR,CLR,0.00,0.0,WeatherDisplay:10.37,2013-04-02 07:39:00,
2013-04-02 02:44:00,20.5,17.0,30.18,NW,310,0.0,0.0,86,0.00,CLR,CLR,0.00,0.0,WeatherDisplay:10.37,2013-04-02 07:44:00,
2013-04-02 02:54:00,20.8,17.3,30.18,NW,310,0.0,1.0,86,0.00,CLR,CLR,0.00,0.0,WeatherDisplay:10.37,2013-04-02 07:54:00,
2013-04-02 02:59:00,20.7,16.9,30.18,NW,310,0.0,1.0,85,0.00,CLR,CLR,0.00,0.0,WeatherDisplay:10.37,2013-04-02 07:59:00,
2013-04-02 03:04:00,20.5,16.7,30.18,NW,310,0.0,0.0,85,0.00,CLR,CLR,0.00,0.0,WeatherDisplay:10.37,2013-04-02 08:04:00,
2013-04-02 03:09:00,20.3,16.5,30.18,NW,310,0.0,0.0,85,0.00,CLR,CLR,0.00,0.0,WeatherDisplay:10.37,2013-04-02 08:09:00,
2013-04-02 03:14:00,20.0,16.3,30.18,NW,310,1.0,2.0,85,0.00,CLR,CLR,0.00,0.0,WeatherDisplay:10.37,2013-04-02 08:14:00,
2013-04-02 03:19:00,20.0,16.5,30.18,NW,310,0.0,1.0,86,0.00,CLR,CLR,0.00,0.0,WeatherDisplay:10.37,2013-04-02 08:19:00,
2013-04-02 03:29:00,20.0,16.8,30.18,NW,310,0.0,1.0,87,0.00,CLR,CLR,0.00,0.0,WeatherDisplay:10.37,2013-04-02 08:29:00,
2013-04-02 03:34:00,19.9,16.4,30.19,NW,310,0.0,0.0,86,0.00,CLR,CLR,0.00,0.0,WeatherDisplay:10.37,2013-04-02 08:34:00,
2013-04-02 03:39:00,19.8,16.3,30.19,NW,310,0.0,1.0,86,0.00,CLR,CLR,0.00,0.0,WeatherDisplay:10.37,2013-04-02 08:39:00,
2013-04-02 03:44:00,19.6,16.1,30.19,NW,310,0.0,1.0,86,0.00,CLR,CLR,0.00,0.0,WeatherDisplay:10.37,2013-04-02 08:44:00,
2013-04-02 03:49:00,19.5,16.3,30.19,NW,310,0.0,0.0,87,0.00,CLR,CLR,0.00,0.0,WeatherDisplay:10.37,2013-04-02 08:49:00,
2013-04-02 03:54:00,19.4,15.9,30.19,NW,310,0.0,0.0,86,0.00,CLR,CLR,0.00,0.0,WeatherDisplay:10.37,2013-04-02 08:54:00,
2013-04-02 03:59:00,19.1,15.6,30.19,NW,310,0.0,0.0,86,0.00,CLR,CLR,0.00,0.0,WeatherDisplay:10.37,2013-04-02 08:59:00,
2013-04-02 04:04:00,18.9,15.7,30.19,NW,310,0.0,0.0,87,0.00,CLR,CLR,0.00,0.0,WeatherDisplay:10.37,2013-04-02 09:04:00,
2013-04-02 04:09:00,19.0,16.0,30.19,NW,310,0.0,0.0,88,0.00,CLR,CLR,0.00,0.0,WeatherDisplay:10.37,2013-04-02 09:09:00,
2013-04-02 04:14:00,19.1,16.4,30.19,NW,310,1.0,1.0,89,0.00,CLR,CLR,0.00,0.0,WeatherDisplay:10.37,2013-04-02 09:14:00,
2013-04-02 04:24:00,19.8,17.1,30.19,NW,310,0.0,1.0,89,0.00,CLR,CLR,0.00,0.0,WeatherDisplay:10.37,2013-04-02 09:24:00,
2013-04-02 04:29:00,19.8,16.8,30.20,NW,310,0.0,2.0,88,0.00,CLR,CLR,0.00,0.0,WeatherDisplay:10.37,2013-04-02 09:29:00,
2013-04-02 04:34:00,19.6,16.1,30.20,NW,310,0.0,1.0,86,0.00,CLR,CLR,0.00,0.0,WeatherDisplay:10.37,2013-04-02 09:34:00,
2013-04-02 04:39:00,19.2,15.7,30.20,NW,310,0.0,0.0,86,0.00,CLR,CLR,0.00,0.0,WeatherDisplay:10.37,2013-04-02 09:39:00,
2013-04-02 04:44:00,18.8,15.3,30.20,NW,310,0.0,1.0,86,0.00,CLR,CLR,0.00,0.0,WeatherDisplay:10.37,2013-04-02 09:44:00,
2013-04-02 04:49:00,18.5,15.0,30.21,NW,310,0.0,1.0,86,0.00,CLR,CLR,0.00,0.0,WeatherDisplay:10.37,2013-04-02 09:49:00,
2013-04-02 04:54:00,18.4,15.2,30.21,NW,310,0.0,2.0,87,0.00,CLR,CLR,0.00,0.0,WeatherDisplay:10.37,2013-04-02 09:54:00,
2013-04-02 04:59:00,18.2,15.2,30.21,NW,310,0.0,1.0,88,0.00,CLR,CLR,0.00,0.0,WeatherDisplay:10.37,2013-04-02 09:59:00,
2013-04-02 05:04:00,18.2,15.2,30.21,NW,310,1.0,2.0,88,0.00,CLR,CLR,0.00,0.0,WeatherDisplay:10.37,2013-04-02 10:04:00,
2013-04-02 05:09:00,18.4,15.7,30.21,NW,310,0.0,1.0,89,0.00,CLR,CLR,0.00,0.0,WeatherDisplay:10.37,2013-04-02 10:09:00,
2013-04-02 05:14:00,18.7,16.0,30.21,NW,310,1.0,3.0,89,0.00,CLR,CLR,0.00,0.0,WeatherDisplay:10.37,2013-04-02 10:14:00,
2013-04-02 05:19:00,19.1,16.1,30.21,NW,310,1.0,3.0,88,0.00,CLR,CLR,0.00,0.0,WeatherDisplay:10.37,2013-04-02 10:19:00,
2013-04-02 05:24:00,19.3,16.3,30.21,NW,310,0.0,1.0,88,0.00,CLR,CLR,0.00,0.0,WeatherDisplay:10.37,2013-04-02 10:24:00,
2013-04-02 05:34:00,19.7,16.5,30.22,NW,310,0.0,1.0,87,0.00,CLR,CLR,0.00,0.0,WeatherDisplay:10.37,2013-04-02 10:34:00,
2013-04-02 05:39:00,19.8,16.6,30.22,NW,310,0.0,1.0,87,0.00,CLR,CLR,0.00,0.0,WeatherDisplay:10.37,2013-04-02 10:39:00,
2013-04-02 05:44:00,19.8,16.3,30.22,NW,310,0.0,1.0,86,0.00,CLR,CLR,0.00,0.0,WeatherDisplay:10.37,2013-04-02 10:44:00,
2013-04-02 05:49:00,19.7,16.2,30.22,NW,310,1.0,2.0,86,0.00,CLR,CLR,0.00,0.0,WeatherDisplay:10.37,2013-04-02 10:49:00,
2013-04-02 05:54:00,19.7,16.5,30.22,NW,310,1.0,2.0,87,0.00,CLR,CLR,0.00,0.0,WeatherDisplay:10.37,2013-04-02 10:54:00,
2013-04-02 05:59:00,19.6,16.4,30.22,NW,310,0.0,2.0,87,0.00,CLR,CLR,0.00,0.0,WeatherDisplay:10.37,2013-04-02 10:59:00,
2013-04-02 06:04:00,19.6,16.4,30.22,NW,310,0.0,0.0,87,0.00,CLR,CLR,0.00,0.0,WeatherDisplay:10.37,2013-04-02 11:04:00,
2013-04-02 06:09:00,19.4,15.9,30.22,NW,310,0.0,0.0,86,0.00,CLR,CLR,0.00,0.0,WeatherDisplay:10.37,2013-04-02 11:09:00,
2013-04-02 06:14:00,19.1,15.6,30.22,NW,310,0.0,0.0,86,0.00,CLR,CLR,0.00,0.0,WeatherDisplay:10.37,2013-04-02 11:14:00,
2013-04-02 06:19:00,19.1,16.1,30.22,NW,310,0.0,0.0,88,0.00,CLR,CLR,0.00,0.0,WeatherDisplay:10.37,2013-04-02 11:19:00,
2013-04-02 06:24:00,18.9,15.7,30.23,NW,310,0.0,0.0,87,0.00,CLR,CLR,0.00,0.0,WeatherDisplay:10.37,2013-04-02 11:24:00,
2013-04-02 06:29:00,18.8,16.1,30.23,NW,310,0.0,0.0,89,0.00,CLR,CLR,0.00,0.0,WeatherDisplay:10.37,2013-04-02 11:29:00,
2013-04-02 06:34:00,18.9,16.5,30.23,NW,310,0.0,0.0,90,0.00,CLR,CLR,0.00,0.0,WeatherDisplay:10.37,2013-04-02 11:34:00,
2013-04-02 06:39:00,18.9,16.5,30.23,West,269,0.0,0.0,90,0.00,CLR,CLR,0.00,0.0,WeatherDisplay:10.37,2013-04-02 11:39:00,
2013-04-02 06:44:00,18.8,16.1,30.23,South,184,0.0,0.0,89,0.00,CLR,CLR,0.00,0.0,WeatherDisplay:10.37,2013-04-02 11:44:00,
2013-04-02 06:49:00,18.6,15.9,30.23,South,179,0.0,1.0,89,0.00,CLR,CLR,0.00,0.0,WeatherDisplay:10.37,2013-04-02 11:49:00,
2013-04-02 06:54:00,18.3,15.6,30.23,South,179,0.0,1.0,89,0.00,CLR,CLR,0.00,0.0,WeatherDisplay:10.37,2013-04-02 11:54:00,
2013-04-02 06:59:00,18.2,15.5,30.24,South,179,0.0,1.0,89,0.00,CLR,CLR,0.00,0.0,WeatherDisplay:10.37,2013-04-02 11:59:00,
2013-04-02 07:04:00,18.6,16.1,30.24,South,179,1.0,1.0,90,0.00,CLR,CLR,0.00,0.0,WeatherDisplay:10.37,2013-04-02 12:04:00,
2013-04-02 07:09:00,19.3,17.1,30.24,South,179,0.0,1.0,91,0.00,CLR,CLR,0.00,0.0,WeatherDisplay:10.37,2013-04-02 12:09:00,
2013-04-02 07:14:00,20.0,17.8,30.24,South,179,0.0,1.0,91,0.00,CLR,CLR,0.00,0.0,WeatherDisplay:10.37,2013-04-02 12:14:00,
2013-04-02 07:19:00,20.9,18.4,30.25,South,180,2.0,3.0,90,0.00,CLR,CLR,0.00,0.0,WeatherDisplay:10.37,2013-04-02 12:19:00,
2013-04-02 07:24:00,21.8,19.0,30.25,South,180,2.0,3.0,89,0.00,CLR,CLR,0.00,0.0,WeatherDisplay:10.37,2013-04-02 12:24:00,
2013-04-02 07:29:00,22.5,19.8,30.25,South,180,1.0,2.0,89,0.00,CLR,CLR,0.00,0.0,WeatherDisplay:10.37,2013-04-02 12:29:00,
2013-04-02 07:39:00,24.4,20.8,30.25,SW,220,2.0,3.0,86,0.00,CLR,CLR,0.00,0.0,WeatherDisplay:10.37,2013-04-02 12:39:00,
2013-04-02 07:44:00,25.1,21.5,30.25,WSW,244,2.0,3.0,86,0.00,CLR,CLR,0.00,0.0,WeatherDisplay:10.37,2013-04-02 12:44:00,
2013-04-02 07:49:00,26.0,22.1,30.26,West,262,3.0,5.0,85,0.00,CLR,CLR,0.00,0.0,WeatherDisplay:10.37,2013-04-02 12:49:00,
2013-04-02 07:54:00,26.7,22.8,30.26,West,273,3.0,5.0,85,0.00,CLR,CLR,0.00,0.0,WeatherDisplay:10.37,2013-04-02 12:54:00,
2013-04-02 07:59:00,27.5,23.3,30.26,WNW,283,2.0,5.0,84,0.00,CLR,CLR,0.00,0.0,WeatherDisplay:10.37,2013-04-02 12:59:00,
2013-04-02 08:04:00,28.1,23.6,30.26,WNW,293,3.0,5.0,83,0.00,CLR,CLR,0.00,0.0,WeatherDisplay:10.37,2013-04-02 13:04:00,
2013-04-02 08:09:00,28.7,23.9,30.26,WNW,288,3.0,6.0,82,0.00,CLR,CLR,0.00,0.0,WeatherDisplay:10.37,2013-04-02 13:09:00,
2013-04-02 08:14:00,29.3,23.9,30.26,WNW,295,3.0,7.0,80,0.00,CLR,CLR,0.00,0.0,WeatherDisplay:10.37,2013-04-02 13:14:00,
2013-04-02 08:19:00,29.8,24.1,30.26,WNW,300,5.0,7.0,79,0.00,CLR,CLR,0.00,0.0,WeatherDisplay:10.37,2013-04-02 13:19:00,
2013-04-02 08:29:00,31.0,24.6,30.26,WNW,300,3.0,6.0,77,0.00,CLR,CLR,0.00,0.0,WeatherDisplay:10.37,2013-04-02 13:29:00,
2013-04-02 08:34:00,31.5,24.5,30.27,NW,304,5.0,8.0,75,0.00,CLR,CLR,0.00,0.0,WeatherDisplay:10.37,2013-04-02 13:34:00,
2013-04-02 08:39:00,31.9,25.2,30.27,WNW,301,3.0,6.0,76,0.00,CLR,CLR,0.00,0.0,WeatherDisplay:10.37,2013-04-02 13:39:00,
2013-04-02 08:44:00,32.4,25.0,30.27,WNW,297,5.0,7.0,74,0.00,CLR,CLR,0.00,0.0,WeatherDisplay:10.37,2013-04-02 13:44:00,
2013-04-02 08:49:00,32.7,24.3,30.27,WNW,300,3.0,7.0,71,0.00,CLR,CLR,0.00,0.0,WeatherDisplay:10.37,2013-04-02 13:49:00,
2013-04-02 08:54:00,32.9,23.5,30.27,NW,308,3.0,8.0,68,0.00,CLR,CLR,0.00,0.0,WeatherDisplay:10.37,2013-04-02 13:54:00,
2013-04-02 08:59:00,33.2,23.8,30.27,NW,308,3.0,7.0,68,0.00,CLR,CLR,0.00,0.0,WeatherDisplay:10.37,2013-04-02 13:59:00,
2013-04-02 09:04:00,33.5,23.7,30.27,NW,312,5.0,8.0,67,0.00,CLR,CLR,0.00,0.0,WeatherDisplay:10.37,2013-04-02 14:04:00,
2013-04-02 09:09:00,33.8,22.9,30.27,NW,310,6.0,8.0,64,0.00,CLR,CLR,0.00,0.0,WeatherDisplay:10.37,2013-04-02 14:09:00,
2013-04-02 09:14:00,34.1,23.2,30.27,NW,307,3.0,6.0,64,0.00,CLR,CLR,0.00,0.0,WeatherDisplay:10.37,2013-04-02 14:14:00,
2013-04-02 09:19:00,34.6,23.3,30.27,WNW,301,5.0,7.0,63,0.00,CLR,CLR,0.00,0.0,WeatherDisplay:10.37,2013-04-02 14:19:00,
2013-04-02 09:24:00,34.8,21.5,30.27,NW,307,3.0,7.0,58,0.00,CLR,CLR,0.00,0.0,WeatherDisplay:10.37,2013-04-02 14:24:00,
2013-04-02 09:29:00,34.9,21.6,30.27,WNW,297,3.0,7.0,58,0.00,CLR,CLR,0.00,0.0,WeatherDisplay:10.37,2013-04-02 14:29:00,
2013-04-02 09:34:00,35.3,22.0,30.27,WNW,284,2.0,7.0,58,0.00,CLR,CLR,0.00,0.0,WeatherDisplay:10.37,2013-04-02 14:34:00,
2013-04-02 09:39:00,35.4,20.8,30.27,WNW,294,3.0,8.0,55,0.00,CLR,CLR,0.00,0.0,WeatherDisplay:10.37,2013-04-02 14:39:00,
2013-04-02 09:44:00,35.6,20.6,30.27,WNW,291,5.0,8.0,54,0.00,CLR,CLR,0.00,0.0,WeatherDisplay:10.37,2013-04-02 14:44:00,
2013-04-02 09:49:00,36.2,21.1,30.27,WNW,287,3.0,8.0,54,0.00,CLR,CLR,0.00,0.0,WeatherDisplay:10.37,2013-04-02 14:49:00,
2013-04-02 09:54:00,36.8,21.3,30.26,WNW,293,3.0,9.0,53,0.00,CLR,CLR,0.00,0.0,WeatherDisplay:10.37,2013-04-02 14:54:00,
2013-04-02 09:59:00,37.1,20.7,30.26,West,280,3.0,9.0,51,0.00,CLR,CLR,0.00,0.0,WeatherDisplay:10.37,2013-04-02 14:59:00,
2013-04-02 10:04:00,37.8,19.3,30.26,West,280,5.0,10.0,47,0.00,CLR,CLR,0.00,0.0,WeatherDisplay:10.37,2013-04-02 15:04:00,
2013-04-02 10:09:00,37.7,18.8,30.27,WNW,294,5.0,9.0,46,0.00,CLR,CLR,0.00,0.0,WeatherDisplay:10.37,2013-04-02 15:09:00,
2013-04-02 10:14:00,37.8,19.4,30.27,WNW,302,5.0,9.0,47,0.00,CLR,CLR,0.00,0.0,WeatherDisplay:10.37,2013-04-02 15:14:00,
2013-04-02 10:19:00,38.2,18.7,30.27,WNW,282,6.0,9.0,45,0.00,CLR,CLR,0.00,0.0,WeatherDisplay:10.37,2013-04-02 15:19:00,
2013-04-02 10:24:00,38.4,16.7,30.27,West,278,6.0,10.0,41,0.00,CLR,CLR,0.00,0.0,WeatherDisplay:10.37,2013-04-02 15:24:00,
2013-04-02 10:29:00,38.9,16.0,30.27,WNW,295,3.0,9.0,39,0.00,CLR,CLR,0.00,0.0,WeatherDisplay:10.37,2013-04-02 15:29:00,
2013-04-02 10:34:00,39.2,15.7,30.27,WNW,299,6.0,10.0,38,0.00,CLR,CLR,0.00,0.0,WeatherDisplay:10.37,2013-04-02 15:34:00,
2013-04-02 10:39:00,39.2,18.0,30.27,WNW,289,6.0,9.0,42,0.00,CLR,CLR,0.00,0.0,WeatherDisplay:10.37,2013-04-02 15:39:00,
2013-04-02 10:49:00,39.5,17.1,30.27,WNW,303,5.0,10.0,40,0.00,CLR,CLR,0.00,0.0,WeatherDisplay:10.37,2013-04-02 15:49:00,
2013-04-02 10:54:00,39.9,18.1,30.27,WNW,294,6.0,10.0,41,0.00,CLR,CLR,0.00,0.0,WeatherDisplay:10.37,2013-04-02 15:54:00,
2013-04-02 10:59:00,40.6,16.9,30.27,WNW,298,6.0,10.0,38,0.00,CLR,CLR,0.00,0.0,WeatherDisplay:10.37,2013-04-02 15:59:00,
2013-04-02 11:04:00,40.2,16.0,30.27,NW,304,9.0,12.0,37,0.00,CLR,CLR,0.00,0.0,WeatherDisplay:10.37,2013-04-02 16:04:00,
2013-04-02 11:09:00,40.3,16.7,30.27,WNW,289,7.0,12.0,38,0.00,CLR,CLR,0.00,0.0,WeatherDisplay:10.37,2013-04-02 16:09:00,
2013-04-02 11:24:00,41.0,16.1,30.26,WNW,286,6.0,12.0,36,0.00,CLR,CLR,0.00,0.0,WeatherDisplay:10.37,2013-04-02 16:24:00,
2013-04-02 11:34:00,41.4,16.4,30.26,WNW,297,6.0,10.0,36,0.00,CLR,CLR,0.00,0.0,WeatherDisplay:10.37,2013-04-02 16:34:00,
2013-04-02 11:44:00,41.4,15.7,30.26,WNW,283,7.0,10.0,35,0.00,CLR,CLR,0.00,0.0,WeatherDisplay:10.37,2013-04-02 16:44:00,
2013-04-02 11:49:00,42.0,16.3,30.26,West,274,5.0,12.0,35,0.00,CLR,CLR,0.00,0.0,WeatherDisplay:10.37,2013-04-02 16:49:00,
2013-04-02 11:54:00,41.8,16.8,30.26,West,264,6.0,12.0,36,0.00,CLR,CLR,0.00,0.0,WeatherDisplay:10.37,2013-04-02 16:54:00,
2013-04-02 11:59:00,41.8,16.1,30.25,West,265,6.0,14.0,35,0.00,CLR,CLR,0.00,0.0,WeatherDisplay:10.37,2013-04-02 16:59:00,
2013-04-02 12:04:00,41.8,16.1,30.25,West,267,7.0,12.0,35,0.00,CLR,CLR,0.00,0.0,WeatherDisplay:10.37,2013-04-02 17:04:00,
2013-04-02 12:14:00,41.7,16.1,30.25,WNW,285,6.0,12.0,35,0.00,CLR,CLR,0.00,0.0,WeatherDisplay:10.37,2013-04-02 17:14:00,
2013-04-02 12:19:00,42.1,17.0,30.25,WNW,282,6.0,10.0,36,0.00,CLR,CLR,0.00,0.0,WeatherDisplay:10.37,2013-04-02 17:19:00,
2013-04-02 12:29:00,42.7,16.2,30.25,West,277,8.0,13.0,34,0.00,CLR,CLR,0.00,0.0,WeatherDisplay:10.37,2013-04-02 17:29:00,
2013-04-02 12:39:00,43.1,15.9,30.25,WNW,289,6.0,13.0,33,0.00,CLR,CLR,0.00,0.0,WeatherDisplay:10.37,2013-04-02 17:39:00,
2013-04-02 12:44:00,43.1,16.6,30.24,WNW,282,7.0,12.0,34,0.00,CLR,CLR,0.00,0.0,WeatherDisplay:10.37,2013-04-02 17:44:00,
2013-04-02 12:49:00,43.3,15.3,30.24,West,278,7.0,14.0,32,0.00,CLR,CLR,0.00,0.0,WeatherDisplay:10.37,2013-04-02 17:49:00,
2013-04-02 12:54:00,43.4,16.9,30.24,West,276,9.0,14.0,34,0.00,CLR,CLR,0.00,0.0,WeatherDisplay:10.37,2013-04-02 17:54:00,
2013-04-02 12:59:00,44.4,17.1,30.24,West,278,8.0,14.0,33,0.00,CLR,CLR,0.00,0.0,WeatherDisplay:10.37,2013-04-02 17:59:00,
2013-04-02 13:04:00,44.6,15.8,30.24,West,275,7.0,12.0,31,0.00,CLR,CLR,0.00,0.0,WeatherDisplay:10.37,2013-04-02 18:04:00,
2013-04-02 13:09:00,43.3,16.1,30.24,West,273,6.0,12.0,33,0.00,CLR,CLR,0.00,0.0,WeatherDisplay:10.37,2013-04-02 18:09:00,
2013-04-02 13:14:00,43.9,15.2,30.24,WNW,296,7.0,12.0,31,0.00,CLR,CLR,0.00,0.0,WeatherDisplay:10.37,2013-04-02 18:14:00,
2013-04-02 13:19:00,43.9,15.9,30.23,WNW,288,8.0,10.0,32,0.00,CLR,CLR,0.00,0.0,WeatherDisplay:10.37,2013-04-02 18:19:00,
2013-04-02 13:29:00,45.4,16.5,30.23,NW,305,6.0,15.0,31,0.00,CLR,CLR,0.00,0.0,WeatherDisplay:10.37,2013-04-02 18:29:00,
2013-04-02 13:39:00,45.8,16.1,30.22,WNW,299,7.0,12.0,30,0.00,CLR,CLR,0.00,0.0,WeatherDisplay:10.37,2013-04-02 18:39:00,
2013-04-02 13:44:00,45.4,15.7,30.22,West,281,8.0,12.0,30,0.00,CLR,CLR,0.00,0.0,WeatherDisplay:10.37,2013-04-02 18:44:00,
2013-04-02 13:54:00,45.9,16.2,30.22,WNW,287,7.0,13.0,30,0.00,CLR,CLR,0.00,0.0,WeatherDisplay:10.37,2013-04-02 18:54:00,
2013-04-02 14:04:00,45.6,15.1,30.22,WNW,295,10.0,17.0,29,0.00,CLR,CLR,0.00,0.0,WeatherDisplay:10.37,2013-04-02 19:04:00,
2013-04-02 14:14:00,46.1,17.8,30.22,WNW,298,6.0,10.0,32,0.00,CLR,CLR,0.00,0.0,WeatherDisplay:10.37,2013-04-02 19:14:00,
2013-04-02 14:19:00,46.3,14.9,30.22,WNW,291,9.0,14.0,28,0.00,CLR,CLR,0.00,0.0,WeatherDisplay:10.37,2013-04-02 19:19:00,
2013-04-02 14:24:00,45.6,12.7,30.22,WNW,295,6.0,16.0,26,0.00,CLR,CLR,0.00,0.0,WeatherDisplay:10.37,2013-04-02 19:24:00,
2013-04-02 14:29:00,45.5,15.1,30.21,WNW,298,7.0,13.0,29,0.00,CLR,CLR,0.00,0.0,WeatherDisplay:10.37,2013-04-02 19:29:00,
2013-04-02 14:39:00,46.6,15.2,30.21,WNW,283,9.0,12.0,28,0.00,CLR,CLR,0.00,0.0,WeatherDisplay:10.37,2013-04-02 19:39:00,
2013-04-02 14:49:00,45.8,15.3,30.21,WNW,284,6.0,12.0,29,0.00,CLR,CLR,0.00,0.0,WeatherDisplay:10.37,2013-04-02 19:49:00,
2013-04-02 14:54:00,46.2,14.9,30.21,WNW,294,7.0,12.0,28,0.00,CLR,CLR,0.00,0.0,WeatherDisplay:10.37,2013-04-02 19:54:00,
2013-04-02 14:59:00,46.1,11.2,30.20,WNW,293,8.0,13.0,24,0.00,CLR,CLR,0.00,0.0,WeatherDisplay:10.37,2013-04-02 19:59:00,
2013-04-02 15:04:00,46.3,14.9,30.21,WNW,294,7.0,13.0,28,0.00,CLR,CLR,0.00,0.0,WeatherDisplay:10.37,2013-04-02 20:04:00,
2013-04-02 15:09:00,46.4,15.0,30.20,WNW,286,8.0,17.0,28,0.00,CLR,CLR,0.00,0.0,WeatherDisplay:10.37,2013-04-02 20:09:00,
2013-04-02 15:14:00,45.5,13.4,30.20,West,281,10.0,15.0,27,0.00,CLR,CLR,0.00,0.0,WeatherDisplay:10.37,2013-04-02 20:14:00,
2013-04-02 15:24:00,46.0,13.8,30.20,WNW,287,7.0,12.0,27,0.00,CLR,CLR,0.00,0.0,WeatherDisplay:10.37,2013-04-02 20:24:00,
2013-04-02 15:29:00,46.2,14.8,30.21,WNW,288,8.0,14.0,28,0.00,CLR,CLR,0.00,0.0,WeatherDisplay:10.37,2013-04-02 20:29:00,
2013-04-02 15:39:00,46.1,15.6,30.20,WNW,302,7.0,12.0,29,0.00,CLR,CLR,0.00,0.0,WeatherDisplay:10.37,2013-04-02 20:39:00,
2013-04-02 15:49:00,46.4,15.0,30.20,WNW,293,9.0,18.0,28,0.00,CLR,CLR,0.00,0.0,WeatherDisplay:10.37,2013-04-02 20:49:00,
2013-04-02 15:59:00,45.7,14.4,30.20,WNW,290,6.0,13.0,28,0.00,CLR,CLR,0.00,0.0,WeatherDisplay:10.37,2013-04-02 20:59:00,
2013-04-02 16:04:00,46.4,14.2,30.20,WNW,287,8.0,15.0,27,0.00,CLR,CLR,0.00,0.0,WeatherDisplay:10.37,2013-04-02 21:04:00,
2013-04-02 16:14:00,46.6,15.2,30.21,WNW,297,7.0,14.0,28,0.00,CLR,CLR,0.00,0.0,WeatherDisplay:10.37,2013-04-02 21:14:00,
2013-04-02 16:19:00,46.1,14.8,30.21,WNW,291,6.0,15.0,28,0.00,CLR,CLR,0.00,0.0,WeatherDisplay:10.37,2013-04-02 21:19:00,
2013-04-02 16:24:00,46.1,15.5,30.21,WNW,291,8.0,12.0,29,0.00,CLR,CLR,0.00,0.0,WeatherDisplay:10.37,2013-04-02 21:24:00,
2013-04-02 16:29:00,46.1,14.8,30.21,WNW,301,3.0,12.0,28,0.00,CLR,CLR,0.00,0.0,WeatherDisplay:10.37,2013-04-02 21:29:00,
2013-04-02 16:39:00,46.0,15.4,30.21,NW,308,9.0,12.0,29,0.00,CLR,CLR,0.00,0.0,WeatherDisplay:10.37,2013-04-02 21:39:00,
2013-04-02 16:54:00,46.2,15.6,30.21,WNW,290,6.0,10.0,29,0.00,CLR,CLR,0.00,0.0,WeatherDisplay:10.37,2013-04-02 21:54:00,
2013-04-02 16:59:00,45.9,15.4,30.21,WNW,288,5.0,9.0,29,0.00,CLR,CLR,0.00,0.0,WeatherDisplay:10.37,2013-04-02 21:59:00,
2013-04-02 17:04:00,46.5,15.9,30.21,NW,307,7.0,12.0,29,0.00,CLR,CLR,0.00,0.0,WeatherDisplay:10.37,2013-04-02 22:04:00,
2013-04-02 17:09:00,46.2,15.6,30.21,NW,306,6.0,12.0,29,0.00,CLR,CLR,0.00,0.0,WeatherDisplay:10.37,2013-04-02 22:09:00,
2013-04-02 17:14:00,46.1,14.8,30.21,WNW,295,8.0,12.0,28,0.00,CLR,CLR,0.00,0.0,WeatherDisplay:10.37,2013-04-02 22:14:00,
2013-04-02 17:19:00,45.5,15.8,30.22,WNW,297,7.0,12.0,30,0.00,CLR,CLR,0.00,0.0,WeatherDisplay:10.37,2013-04-02 22:19:00,
2013-04-02 17:24:00,44.0,16.0,30.22,WNW,293,7.0,10.0,32,0.00,CLR,CLR,0.00,0.0,WeatherDisplay:10.37,2013-04-02 22:24:00,
2013-04-02 17:29:00,43.3,15.4,30.21,WNW,287,6.0,9.0,32,0.00,CLR,CLR,0.00,0.0,WeatherDisplay:10.37,2013-04-02 22:29:00,
2013-04-02 17:34:00,44.5,17.9,30.21,WNW,301,6.0,8.0,34,0.00,CLR,CLR,0.00,0.0,WeatherDisplay:10.37,2013-04-02 22:34:00,
2013-04-02 17:39:00,44.9,16.7,30.22,NW,306,6.0,8.0,32,0.00,CLR,CLR,0.00,0.0,WeatherDisplay:10.37,2013-04-02 22:39:00,
2013-04-02 17:44:00,43.7,15.7,30.22,WNW,292,6.0,12.0,32,0.00,CLR,CLR,0.00,0.0,WeatherDisplay:10.37,2013-04-02 22:44:00,
2013-04-02 17:49:00,44.4,17.1,30.22,NW,305,5.0,9.0,33,0.00,CLR,CLR,0.00,0.0,WeatherDisplay:10.37,2013-04-02 22:49:00,
2013-04-02 17:54:00,44.6,16.5,30.22,NW,315,5.0,8.0,32,0.00,CLR,CLR,0.00,0.0,WeatherDisplay:10.37,2013-04-02 22:54:00,
2013-04-02 17:59:00,44.3,17.0,30.22,NW,321,6.0,8.0,33,0.00,CLR,CLR,0.00,0.0,WeatherDisplay:10.37,2013-04-02 22:59:00,
2013-04-02 18:04:00,43.4,16.2,30.22,WNW,303,6.0,9.0,33,0.00,CLR,CLR,0.00,0.0,WeatherDisplay:10.37,2013-04-02 23:04:00,
2013-04-02 18:09:00,42.6,16.1,30.22,WNW,288,6.0,10.0,34,0.00,CLR,CLR,0.00,0.0,WeatherDisplay:10.37,2013-04-02 23:09:00,
2013-04-02 18:19:00,42.2,16.4,30.22,NW,305,5.0,7.0,35,0.00,CLR,CLR,0.00,0.0,WeatherDisplay:10.37,2013-04-02 23:19:00,
2013-04-02 18:24:00,41.5,17.2,30.22,NW,306,5.0,8.0,37,0.00,CLR,CLR,0.00,0.0,WeatherDisplay:10.37,2013-04-02 23:24:00,
2013-04-02 18:29:00,41.1,17.4,30.22,NW,305,3.0,7.0,38,0.00,CLR,CLR,0.00,0.0,WeatherDisplay:10.37,2013-04-02 23:29:00,
2013-04-02 18:39:00,40.8,17.1,30.22,NW,312,5.0,7.0,38,0.00,CLR,CLR,0.00,0.0,WeatherDisplay:10.37,2013-04-02 23:39:00,
2013-04-02 18:44:00,40.5,17.4,30.22,NW,311,3.0,5.0,39,0.00,CLR,CLR,0.00,0.0,WeatherDisplay:10.37,2013-04-02 23:44:00,
2013-04-02 18:49:00,39.9,17.5,30.22,NW,306,2.0,3.0,40,0.00,CLR,CLR,0.00,0.0,WeatherDisplay:10.37,2013-04-02 23:49:00,
2013-04-02 18:54:00,39.1,17.3,30.23,NW,304,2.0,5.0,41,0.00,CLR,CLR,0.00,0.0,WeatherDisplay:10.37,2013-04-02 23:54:00,
2013-04-02 18:59:00,38.5,17.4,30.22,WNW,302,1.0,4.0,42,0.00,CLR,CLR,0.00,0.0,WeatherDisplay:10.37,2013-04-02 23:59:00,
2013-04-02 19:04:00,38.0,17.5,30.22,WNW,302,3.0,4.0,43,0.00,CLR,CLR,0.00,0.0,WeatherDisplay:10.37,2013-04-03 00:04:00,
2013-04-02 19:14:00,36.8,17.9,30.22,WNW,303,2.0,3.0,46,0.00,CLR,CLR,0.00,0.0,WeatherDisplay:10.37,2013-04-03 00:14:00,
2013-04-02 19:24:00,35.6,17.3,30.23,NW,306,0.0,1.0,47,0.00,CLR,CLR,0.00,0.0,WeatherDisplay:10.37,2013-04-03 00:24:00,
2013-04-02 19:29:00,35.0,16.8,30.23,NW,306,0.0,1.0,47,0.00,CLR,CLR,0.00,0.0,WeatherDisplay:10.37,2013-04-03 00:29:00,
2013-04-02 19:34:00,34.5,17.7,30.23,NW,306,0.0,1.0,50,0.00,CLR,CLR,0.00,0.0,WeatherDisplay:10.37,2013-04-03 00:34:00,
2013-04-02 19:39:00,34.2,17.9,30.23,NW,306,1.0,2.0,51,0.00,CLR,CLR,0.00,0.0,WeatherDisplay:10.37,2013-04-03 00:39:00,
2013-04-02 19:49:00,33.8,17.6,30.23,NW,306,0.0,0.0,51,0.00,CLR,CLR,0.00,0.0,WeatherDisplay:10.37,2013-04-03 00:49:00,
2013-04-02 19:54:00,33.7,17.5,30.23,NW,306,0.0,0.0,51,0.00,CLR,CLR,0.00,0.0,WeatherDisplay:10.37,2013-04-03 00:54:00,
2013-04-02 19:59:00,33.3,17.6,30.23,NW,306,0.0,1.0,52,0.00,CLR,CLR,0.00,0.0,WeatherDisplay:10.37,2013-04-03 00:59:00,
2013-04-02 20:04:00,33.0,17.3,30.23,NW,306,0.0,0.0,52,0.00,CLR,CLR,0.00,0.0,WeatherDisplay:10.37,2013-04-03 01:04:00,
2013-04-02 20:09:00,32.8,17.1,30.24,NW,306,1.0,2.0,52,0.00,CLR,CLR,0.00,0.0,WeatherDisplay:10.37,2013-04-03 01:09:00,
2013-04-02 20:14:00,33.3,17.1,30.24,NW,306,0.0,2.0,51,0.00,CLR,CLR,0.00,0.0,WeatherDisplay:10.37,2013-04-03 01:14:00,
2013-04-02 20:19:00,33.7,17.5,30.24,NW,306,0.0,1.0,51,0.00,CLR,CLR,0.00,0.0,WeatherDisplay:10.37,2013-04-03 01:19:00,
2013-04-02 20:24:00,34.0,17.7,30.24,NW,306,0.0,1.0,51,0.00,CLR,CLR,0.00,0.0,WeatherDisplay:10.37,2013-04-03 01:24:00,
2013-04-02 20:29:00,33.6,18.3,30.24,NW,306,0.0,0.0,53,0.00,CLR,CLR,0.00,0.0,WeatherDisplay:10.37,2013-04-03 01:29:00,
2013-04-02 20:34:00,33.2,17.9,30.25,NW,306,0.0,0.0,53,0.00,CLR,CLR,0.00,0.0,WeatherDisplay:10.37,2013-04-03 01:34:00,
2013-04-02 20:39:00,32.6,17.8,30.25,NW,306,0.0,0.0,54,0.00,CLR,CLR,0.00,0.0,WeatherDisplay:10.37,2013-04-03 01:39:00,
2013-04-02 20:44:00,32.3,17.5,30.25,NW,306,0.0,0.0,54,0.00,CLR,CLR,0.00,0.0,WeatherDisplay:10.37,2013-04-03 01:44:00,
2013-04-02 20:49:00,31.9,17.1,30.25,NW,306,0.0,0.0,54,0.00,CLR,CLR,0.00,0.0,WeatherDisplay:10.37,2013-04-03 01:49:00,
2013-04-02 20:54:00,31.6,16.4,30.25,NW,306,0.0,0.0,53,0.00,CLR,CLR,0.00,0.0,WeatherDisplay:10.37,2013-04-03 01:54:00,
2013-04-02 21:04:00,31.2,17.3,30.26,NW,306,0.0,0.0,56,0.00,CLR,CLR,0.00,0.0,WeatherDisplay:10.37,2013-04-03 02:04:00,
2013-04-02 21:09:00,30.9,18.3,30.26,NW,306,0.0,0.0,59,0.00,CLR,CLR,0.00,0.0,WeatherDisplay:10.37,2013-04-03 02:09:00,
2013-04-02 21:14:00,30.2,17.6,30.26,NW,306,0.0,0.0,59,0.00,CLR,CLR,0.00,0.0,WeatherDisplay:10.37,2013-04-03 02:14:00,
2013-04-02 21:19:00,29.6,17.8,30.26,NW,306,0.0,0.0,61,0.00,CLR,CLR,0.00,0.0,WeatherDisplay:10.37,2013-04-03 02:19:00,
2013-04-02 21:24:00,29.2,19.6,30.26,NW,306,0.0,0.0,67,0.00,CLR,CLR,0.00,0.0,WeatherDisplay:10.37,2013-04-03 02:24:00,
2013-04-02 21:29:00,28.8,19.2,30.26,NW,306,0.0,0.0,67,0.00,CLR,CLR,0.00,0.0,WeatherDisplay:10.37,2013-04-03 02:29:00,
2013-04-02 21:34:00,28.4,18.9,30.26,NW,306,0.0,0.0,67,0.00,CLR,CLR,0.00,0.0,WeatherDisplay:10.37,2013-04-03 02:34:00,
2013-04-02 21:44:00,27.2,17.4,30.27,NW,306,0.0,0.0,66,0.00,CLR,CLR,0.00,0.0,WeatherDisplay:10.37,2013-04-03 02:44:00,
2013-04-02 21:54:00,26.6,18.7,30.27,NW,306,0.0,1.0,72,0.00,CLR,CLR,0.00,0.0,WeatherDisplay:10.37,2013-04-03 02:54:00,
2013-04-02 21:59:00,26.2,17.1,30.27,NW,306,0.0,0.0,68,0.00,CLR,CLR,0.00,0.0,WeatherDisplay:10.37,2013-04-03 02:59:00,
2013-04-02 22:04:00,25.9,17.1,30.27,NW,306,0.0,0.0,69,0.00,CLR,CLR,0.00,0.0,WeatherDisplay:10.37,2013-04-03 03:04:00,
2013-04-02 22:19:00,24.9,16.8,30.27,NW,306,0.0,0.0,71,0.00,CLR,CLR,0.00,0.0,WeatherDisplay:10.37,2013-04-03 03:19:00,
2013-04-02 22:24:00,24.8,17.4,30.27,NW,306,0.0,0.0,73,0.00,CLR,CLR,0.00,0.0,WeatherDisplay:10.37,2013-04-03 03:24:00,
2013-04-02 22:29:00,25.5,18.4,30.27,NW,306,1.0,2.0,74,0.00,CLR,CLR,0.00,0.0,WeatherDisplay:10.37,2013-04-03 03:29:00,
2013-04-02 22:34:00,26.0,17.9,30.27,NW,306,0.0,0.0,71,0.00,CLR,CLR,0.00,0.0,WeatherDisplay:10.37,2013-04-03 03:34:00,
2013-04-02 22:39:00,25.7,17.6,30.27,NW,306,0.0,0.0,71,0.00,CLR,CLR,0.00,0.0,WeatherDisplay:10.37,2013-04-03 03:39:00,
2013-04-02 22:44:00,25.6,17.8,30.27,NW,306,0.0,0.0,72,0.00,CLR,CLR,0.00,0.0,WeatherDisplay:10.37,2013-04-03 03:44:00,
2013-04-02 22:49:00,25.9,18.5,30.27,NW,306,0.0,0.0,73,0.00,CLR,CLR,0.00,0.0,WeatherDisplay:10.37,2013-04-03 03:49:00,
2013-04-02 22:54:00,26.3,18.5,30.27,NW,306,0.0,0.0,72,0.00,CLR,CLR,0.00,0.0,WeatherDisplay:10.37,2013-04-03 03:54:00,
2013-04-02 22:59:00,26.8,19.3,30.27,NW,306,0.0,0.0,73,0.00,CLR,CLR,0.00,0.0,WeatherDisplay:10.37,2013-04-03 03:59:00,
2013-04-02 23:04:00,26.9,19.1,30.27,NW,306,0.0,0.0,72,0.00,CLR,CLR,0.00,0.0,WeatherDisplay:10.37,2013-04-03 04:04:00,
2013-04-02 23:09:00,26.7,19.2,30.28,NW,306,0.0,1.0,73,0.00,CLR,CLR,0.00,0.0,WeatherDisplay:10.37,2013-04-03 04:09:00,
2013-04-02 23:14:00,26.2,19.0,30.28,NW,306,0.0,2.0,74,0.00,CLR,CLR,0.00,0.0,WeatherDisplay:10.37,2013-04-03 04:14:00,
2013-04-02 23:19:00,25.9,18.1,30.27,NW,306,1.0,1.0,72,0.00,CLR,CLR,0.00,0.0,WeatherDisplay:10.37,2013-04-03 04:19:00,
2013-04-02 23:24:00,25.9,17.8,30.27,NW,306,0.0,1.0,71,0.00,CLR,CLR,0.00,0.0,WeatherDisplay:10.37,2013-04-03 04:24:00,
2013-04-02 23:29:00,26.0,17.9,30.28,NW,306,0.0,0.0,71,0.00,CLR,CLR,0.00,0.0,WeatherDisplay:10.37,2013-04-03 04:29:00,
2013-04-02 23:34:00,25.6,17.8,30.27,NW,306,0.0,0.0,72,0.00,CLR,CLR,0.00,0.0,WeatherDisplay:10.37,2013-04-03 04:34:00,
2013-04-02 23:39:00,25.2,17.4,30.27,NW,306,0.0,0.0,72,0.00,CLR,CLR,0.00,0.0,WeatherDisplay:10.37,2013-04-03 04:39:00,
2013-04-02 23:44:00,24.9,17.5,30.28,NW,306,0.0,0.0,73,0.00,CLR,CLR,0.00,0.0,WeatherDisplay:10.37,2013-04-03 04:44:00,
2013-04-02 23:49:00,24.7,17.3,30.27,NW,306,0.0,0.0,73,0.00,CLR,CLR,0.00,0.0,WeatherDisplay:10.37,2013-04-03 04:49:00,
2013-04-02 23:54:00,24.8,18.3,30.27,NW,306,0.0,1.0,76,0.00,CLR,CLR,0.00,0.0,WeatherDisplay:10.37,2013-04-03 04:54:00,
2013-04-02 23:59:00,24.8,19.2,30.27,NW,306,0.0,1.0,79,0.00,CLR,CLR,0.00,0.0,WeatherDisplay:10.37,2013-04-03 04:59:00,